Airfield :
LOGIN :

Register | Disclaimer

   EN    FR    IT 

 










Legend :    VFR   Marginal VFR   IFR   Intensive IFR   Very Intensive IFR
Visi :
Ceiling :
>= 8 km
>= 3000ft
5 to 8 km
1000 to 3000 ft
1500m to 5 km
500 to 1000 ft
800 to 1500m
200 to 500 ft
< 800m
< 200 ft
Symbols :   Thunderstorms  Fog  Heavy snow  Heavy precipitations  Wind > 20 kt
SIGMETs :     Misc.  Thunderstorms  Icing  Turbulence  Mountain Waves  Volcanic Ashes






- Airport Elevation : 18 ft


LIPC - Cervia AFB Ravenna

CURRENT METAR :
  • 280555Z 26004KT CAVOK 20/18 Q1008 RMK SCT SCT090 VIS MIN 9999 WIND THR11 25005KT WIND THR29 27005KT BLU

EXPIRED METARs :
  • 280455Z 25004KT CAVOK 18/16 Q1009
  • 280355Z 29003KT CAVOK 18/15 Q1009

TAF TAF LIPC
Valid from the 28 at 06:00 until the 28 at 15:00 UTC


280500Z 2806/2815 07012KT 9999 FEW040
TEMPO 2809/2815 07020G30KT SCT030
TEMPO 2811/2815 5000 SHRA FEW015CB BKN030



MET'MAP, your aeronautical weather chart ! - Copyright ORBIFLY December 2007 - Disclaimer

ORBIFLY MET'MAP TEAM :

Programming & Development : Alexandra Zaïnal
Original concept : Baudouin d'Aumeries
Technical & hardware support : Manuel Goepfert
Assistance : Marc-Olivier Méhu

Contact : metmap@orbifly.com




SOURCES & CREDITS :

   NOAA